Terminal Aerodrome Forecast
Issued by NWS

Home | Current Version | Previous Version | Graphics & Text | Print | Product List | Glossary On
Versions: 1 2 3 4 5 6 7 8 9 10 11 12 13 14 15 16 17 18 19 20 21 22 23 24 25 26 27 28 29 30 31
000
FTUS43 KGRB 231700 AAB
TAFCWA
TAF AMD
KCWA 231702Z 2317/2412 18008KT 5SM -SHRA BR BKN015 OVC030
      TEMPO 2317/2320 3SM SHRA BR BKN007
     FM232000 20005KT P6SM SCT007 OVC010
     FM240300 24003KT 3SM BR SCT003
     FM240500 VRB03KT 1/2SM FG VV002=

USA.gov is the U.S. government's official web portal to all federal, state and local government web resources and services.